Главная страница
METAR-TAF:

METAR-TAF

Аэропорты :

Нампула, Мозамбик

широта: 15-06S, долгота: 039-17E, высота над уровнем моря: 438 м

Текущие метеонаблюдения

Эта сводка был подготовлена 35 минут назад, в 05:00 UTC
Штиль
Температура 23°C
Влажность 69%
Давление 1019 hPa
Видимость 10 км и более
небольшая облачность на высоте 2000 фута

METAR: FQNP 210500Z 00000KT 9999 FEW020 23/17 Q1019

Время: 07:35 (05:35 UTC)

Прогноз

Эта сводка был подготовлена 1 час и 35 минут назад, в 04:00 UTC
Прогноз действительный с 21-го 06 UTC до 22-го 12 UTC
Ветер 9 Узел от восточно-юго-восточный
Видимость 10 км и более
Нет облачности ниже 1500 м, и нет кучево-дождевой облачности
изменения
С 21-го 18 UTC до 21-го 20 UTC
Ветер 2 Узел переменных направлений
изменения
С 22-го 00 UTC до 22-го 02 UTC
Ветер 7 Узел от южный-юго-западный

TAF: FQNP 210400Z 2106/2212 11009KT CAVOK BECMG 2118/2120 VRB02KT BECMG 2200/2202 20007KT TX30/2113Z TN20/2203Z

Метеонаблюдения и прогнозы для более 4000 аэропортов (сводки METAR и TAF).

Имеющиеся станции представлены на карте желтыми и красными точками.

Чтобы увидеть название станции, наведите на нее мышь.

Затем щелкните, чтобы увидеть метеонаблюдения и метеопрогнозы.

Управление картой: чтобы увеличить масштаб, щелкните зеленые кнопки с черным крестиком; чтобы уменьшить масштаб, щелкните зеленую кнопку с тире; для просмотра соседних карт щелкайте зеленые стрелки.


METAR-TAF: